createdAt,value
2022-09-07T00:00:49.281Z,23.15
2022-09-07T00:03:16.067Z,18.05
2022-09-07T00:05:43.880Z,22.08
2022-09-07T00:08:10.658Z,20.38
2022-09-07T00:10:38.178Z,17.98
2022-09-07T00:13:05.740Z,33.42
2022-09-07T00:15:32.236Z,17.70
2022-09-07T00:17:58.991Z,13.75
2022-09-07T00:20:25.408Z,13.43
2022-09-07T00:22:51.758Z,12.48
2022-09-07T00:25:18.105Z,9.50
2022-09-07T00:27:44.480Z,9.48
2022-09-07T00:30:11.208Z,8.20
2022-09-07T00:32:37.569Z,9.05
2022-09-07T00:35:04.154Z,12.48
2022-09-07T00:37:30.518Z,12.60
2022-09-07T00:39:56.907Z,11.93
2022-09-07T00:42:23.634Z,8.55
2022-09-07T00:45:06.269Z,7.47
2022-09-07T00:47:41.008Z,7.40
2022-09-07T00:50:20.340Z,9.00
2022-09-07T00:52:49.975Z,6.78
2022-09-07T00:55:18.229Z,7.63
2022-09-07T00:57:48.725Z,6.20
2022-09-07T01:00:15.496Z,5.57
2022-09-07T01:02:42.244Z,7.88
2022-09-07T01:05:21.572Z,5.15
2022-09-07T01:07:47.938Z,4.95
2022-09-07T01:10:14.545Z,5.93
2022-09-07T01:12:40.901Z,5.60
2022-09-07T01:15:08.240Z,6.68
2022-09-07T01:18:03.338Z,7.55
2022-09-07T01:20:39.819Z,7.25
2022-09-07T01:23:28.088Z,6.60
2022-09-07T01:26:27.619Z,7.85
2022-09-07T01:29:03.601Z,6.85
2022-09-07T01:31:43.149Z,5.63
2022-09-07T01:34:29.882Z,6.68
2022-09-07T01:37:07.798Z,7.43
2022-09-07T01:42:30.515Z,8.60
2022-09-07T01:45:01.143Z,8.35
2022-09-07T01:47:36.135Z,6.03
2022-09-07T01:50:11.821Z,7.15
2022-09-07T01:52:41.958Z,6.95
2022-09-07T01:55:16.672Z,7.90
2022-09-07T01:57:52.792Z,7.47
2022-09-07T02:00:20.278Z,8.38
2022-09-07T02:02:58.426Z,7.65
2022-09-07T02:05:39.881Z,6.07
2022-09-07T02:08:15.777Z,8.93
2022-09-07T02:10:51.729Z,7.20
2022-09-07T02:13:39.572Z,7.32
2022-09-07T02:16:16.057Z,8.80
2022-09-07T02:18:47.837Z,7.85
2022-09-07T02:21:22.011Z,7.97
2022-09-07T02:23:56.628Z,8.85
2022-09-07T02:26:25.514Z,6.90
2022-09-07T02:28:51.972Z,6.55
2022-09-07T02:31:18.409Z,9.05
2022-09-07T02:33:45.035Z,9.07
2022-09-07T02:36:13.153Z,8.75
2022-09-07T02:38:39.702Z,10.65
2022-09-07T02:41:26.487Z,9.02
2022-09-07T02:43:52.874Z,8.75
2022-09-07T02:46:58.365Z,8.48
2022-09-07T02:49:52.285Z,9.00
2022-09-07T02:52:46.101Z,8.18
2022-09-07T02:55:31.440Z,8.07
2022-09-07T02:58:04.321Z,8.32
2022-09-07T03:00:38.981Z,6.88
2022-09-07T03:03:21.390Z,7.90
2022-09-07T03:05:54.613Z,8.85
2022-09-07T03:08:29.689Z,8.70
2022-09-07T03:10:57.953Z,7.25
2022-09-07T03:13:29.193Z,10.23
2022-09-07T03:15:56.551Z,7.75
2022-09-07T03:18:24.539Z,8.75
2022-09-07T03:20:51.285Z,10.98
2022-09-07T03:23:17.789Z,8.90
2022-09-07T03:25:44.187Z,9.50
2022-09-07T03:28:10.760Z,8.98
2022-09-07T03:30:41.323Z,10.00
2022-09-07T03:33:07.680Z,9.93
2022-09-07T03:35:34.060Z,8.73
2022-09-07T03:38:00.433Z,8.82
2022-09-07T03:40:26.753Z,9.45
2022-09-07T03:42:53.358Z,12.65
2022-09-07T03:45:19.785Z,9.13
2022-09-07T03:47:46.151Z,10.52
2022-09-07T03:50:12.507Z,8.02
2022-09-07T03:52:38.880Z,10.27
2022-09-07T03:55:05.677Z,9.38
2022-09-07T03:57:32.020Z,11.43
2022-09-07T03:59:58.378Z,13.27
2022-09-07T04:02:24.841Z,12.80
2022-09-07T04:04:51.751Z,11.05
2022-09-07T04:07:18.137Z,9.60
2022-09-07T04:09:44.466Z,9.68
2022-09-07T04:12:10.808Z,10.27
2022-09-07T04:14:37.142Z,10.07
2022-09-07T04:17:03.580Z,10.38
2022-09-07T04:19:30.307Z,11.10
2022-09-07T04:21:56.729Z,12.07
2022-09-07T04:24:23.107Z,13.80
2022-09-07T04:26:49.480Z,11.50
2022-09-07T04:29:15.805Z,10.32
2022-09-07T04:31:42.136Z,11.77
2022-09-07T04:34:15.010Z,10.13
2022-09-07T04:36:41.368Z,10.55
2022-09-07T04:39:07.806Z,8.68
2022-09-07T04:41:34.424Z,10.70
2022-09-07T04:44:02.798Z,10.65
2022-09-07T04:46:35.714Z,11.88
2022-09-07T04:49:05.168Z,11.48
2022-09-07T04:51:32.836Z,10.68
2022-09-07T04:54:01.427Z,11.48
2022-09-07T04:56:28.612Z,13.55
2022-09-07T04:58:55.281Z,14.98
2022-09-07T05:01:24.013Z,13.60
2022-09-07T05:03:51.193Z,13.48
2022-09-07T05:06:20.201Z,13.45
2022-09-07T05:08:49.547Z,13.30
2022-09-07T05:11:16.841Z,12.20
2022-09-07T05:13:43.526Z,10.80
2022-09-07T05:16:13.048Z,14.60
2022-09-07T05:18:39.681Z,13.52
2022-09-07T05:21:14.989Z,10.02
2022-09-07T05:23:42.023Z,10.52
2022-09-07T05:26:09.333Z,11.90
2022-09-07T05:28:36.513Z,13.45
2022-09-07T05:31:20.704Z,14.63
2022-09-07T05:36:39.180Z,13.35
2022-09-07T05:39:07.226Z,14.60
2022-09-07T05:41:33.745Z,12.82
2022-09-07T05:46:46.611Z,13.27
2022-09-07T05:49:12.973Z,12.18
2022-09-07T05:51:39.316Z,14.20
2022-09-07T05:54:05.781Z,12.30
2022-09-07T05:56:36.448Z,12.60
2022-09-07T05:59:03.662Z,15.23
2022-09-07T06:01:30.188Z,11.52
2022-09-07T06:03:56.631Z,18.67
2022-09-07T06:06:23.260Z,17.05
2022-09-07T06:08:51.307Z,17.67
2022-09-07T06:11:21.282Z,17.02
2022-09-07T06:13:47.975Z,18.80
2022-09-07T06:16:16.238Z,16.98
2022-09-07T06:18:45.261Z,20.48
2022-09-07T06:21:18.961Z,20.35
2022-09-07T06:23:46.555Z,17.48
2022-09-07T06:26:14.425Z,18.83
2022-09-07T06:28:42.871Z,22.25
2022-09-07T06:31:12.136Z,26.65
2022-09-07T06:33:39.156Z,29.40
2022-09-07T06:36:09.675Z,29.33
2022-09-07T06:38:37.311Z,33.88
2022-09-07T06:43:54.109Z,35.83
2022-09-07T06:49:07.229Z,33.92
2022-09-07T06:51:33.561Z,33.78
2022-09-07T06:56:46.272Z,29.95
2022-09-07T06:59:12.597Z,32.08
2022-09-07T07:01:38.939Z,28.33
2022-09-07T07:04:05.305Z,29.35
2022-09-07T07:06:35.738Z,27.60
2022-09-07T07:09:03.162Z,25.75
2022-09-07T07:11:29.570Z,27.35
2022-09-07T07:13:55.913Z,25.15
2022-09-07T07:16:22.550Z,22.92
2022-09-07T07:18:48.916Z,23.95
2022-09-07T07:21:15.693Z,21.45
2022-09-07T07:23:42.531Z,22.15
2022-09-07T07:26:15.826Z,19.58
2022-09-07T07:29:03.191Z,19.88
2022-09-07T07:31:30.722Z,17.27
2022-09-07T07:33:57.343Z,17.70
2022-09-07T07:36:26.142Z,17.95
2022-09-07T07:46:40.310Z,16.75
2022-09-07T07:49:06.697Z,17.40
2022-09-07T07:52:49.836Z,16.33
2022-09-07T07:54:19.387Z,17.40
2022-09-07T07:56:45.700Z,18.08
2022-09-07T07:59:15.622Z,18.67
2022-09-07T08:01:42.349Z,16.88
2022-09-07T08:04:08.744Z,14.80
2022-09-07T08:06:35.078Z,14.65
2022-09-07T08:09:01.385Z,15.10
2022-09-07T08:11:27.842Z,14.05
2022-09-07T08:13:54.272Z,16.83
2022-09-07T08:16:20.693Z,14.82
2022-09-07T08:18:47.206Z,13.88
2022-09-07T08:21:15.267Z,13.18
2022-09-07T08:23:41.981Z,15.43
2022-09-07T08:26:08.750Z,15.25
2022-09-07T08:28:40.343Z,14.45
2022-09-07T08:33:35.760Z,16.05
2022-09-07T08:36:04.023Z,15.98
2022-09-07T08:38:32.537Z,14.15
2022-09-07T08:41:00.131Z,15.50
2022-09-07T08:43:39.143Z,15.13
2022-09-07T08:46:28.591Z,16.65
2022-09-07T08:48:58.417Z,16.40
2022-09-07T08:51:49.824Z,15.52
2022-09-07T08:54:16.625Z,17.13
2022-09-07T08:59:46.963Z,16.05
2022-09-07T09:02:36.649Z,14.35
2022-09-07T09:05:20.378Z,15.05
2022-09-07T09:07:58.038Z,31.52
2022-09-07T09:13:12.564Z,21.48
2022-09-07T09:15:47.553Z,15.43
2022-09-07T09:18:43.507Z,15.15
2022-09-07T09:21:16.317Z,14.80
2022-09-07T09:23:45.412Z,13.10
2022-09-07T09:26:21.026Z,13.98
2022-09-07T09:28:47.397Z,14.43
2022-09-07T09:31:35.044Z,16.63
2022-09-07T09:34:16.134Z,13.75
2022-09-07T09:36:45.466Z,14.60
2022-09-07T09:39:28.593Z,20.20
2022-09-07T09:42:16.677Z,13.23
2022-09-07T09:44:44.052Z,14.45
2022-09-07T09:47:40.026Z,13.98
2022-09-07T09:52:29.294Z,12.25
2022-09-07T09:53:05.465Z,13.68
2022-09-07T09:55:36.399Z,13.68
2022-09-07T10:04:01.431Z,11.43
2022-09-07T10:06:31.013Z,12.57
2022-09-07T10:08:59.968Z,13.65
2022-09-07T10:14:29.873Z,12.60
2022-09-07T10:16:57.966Z,14.25
2022-09-07T10:19:34.485Z,13.13
2022-09-07T10:22:03.595Z,12.73
2022-09-07T10:24:39.657Z,12.70
2022-09-07T10:27:30.950Z,11.85
2022-09-07T10:29:57.722Z,11.38
2022-09-07T10:32:26.736Z,10.85
2022-09-07T10:35:06.744Z,11.18
2022-09-07T10:37:46.085Z,10.75
2022-09-07T10:40:16.244Z,11.48
2022-09-07T10:46:56.370Z,11.35
2022-09-07T10:49:35.785Z,10.32
2022-09-07T10:52:14.303Z,10.40
2022-09-07T10:54:40.549Z,10.48
2022-09-07T10:57:31.948Z,11.73
2022-09-07T11:00:11.287Z,11.40
2022-09-07T11:03:26.947Z,11.35
2022-09-07T11:06:31.865Z,11.52
2022-09-07T11:09:25.184Z,10.02
2022-09-07T11:12:04.287Z,10.07
2022-09-07T11:14:43.793Z,11.93
2022-09-07T11:17:20.877Z,10.68
2022-09-07T11:19:55.915Z,10.32
2022-09-07T11:22:46.382Z,9.93
2022-09-07T11:25:36.659Z,11.55
2022-09-07T11:28:14.310Z,8.70
2022-09-07T11:30:46.069Z,10.30
2022-09-07T11:33:19.021Z,9.90
2022-09-07T11:36:21.577Z,10.18
2022-09-07T11:38:58.033Z,9.77
2022-09-07T11:41:26.882Z,12.43
2022-09-07T11:44:01.180Z,8.63
2022-09-07T11:46:40.969Z,8.48
2022-09-07T11:49:27.550Z,9.45
2022-09-07T11:52:04.965Z,8.30
2022-09-07T11:54:39.001Z,7.30
2022-09-07T11:57:14.326Z,8.88
2022-09-07T11:59:53.442Z,7.93
2022-09-07T12:02:59.511Z,8.98
2022-09-07T12:06:03.552Z,9.15
2022-09-07T12:08:53.912Z,9.27
2022-09-07T12:11:28.241Z,9.85
2022-09-07T12:14:18.532Z,8.95
2022-09-07T12:17:35.863Z,8.82
2022-09-07T12:20:16.829Z,9.77
2022-09-07T12:22:58.020Z,10.15
2022-09-07T12:25:27.642Z,9.35
2022-09-07T12:27:53.961Z,9.68
2022-09-07T12:30:20.230Z,10.05
2022-09-07T12:32:54.193Z,8.52
2022-09-07T12:35:27.744Z,9.50
2022-09-07T12:37:59.085Z,7.85
2022-09-07T12:40:28.158Z,9.02
2022-09-07T12:43:12.617Z,8.05
2022-09-07T12:45:38.923Z,8.93
2022-09-07T12:48:17.648Z,9.27
2022-09-07T12:50:56.553Z,7.47
2022-09-07T12:53:44.635Z,9.60
2022-09-07T12:56:33.317Z,7.85
2022-09-07T12:59:24.274Z,8.85
2022-09-07T13:02:01.804Z,8.70
2022-09-07T13:07:35.548Z,8.65
2022-09-07T13:10:05.266Z,7.75
2022-09-07T13:12:53.990Z,7.07
2022-09-07T13:15:32.960Z,7.80
2022-09-07T13:17:59.491Z,7.13
2022-09-07T13:20:28.203Z,7.88
2022-09-07T13:22:57.149Z,7.78
2022-09-07T13:25:23.417Z,5.75
2022-09-07T13:27:57.733Z,6.20
2022-09-07T13:30:45.794Z,5.43
2022-09-07T13:33:24.324Z,5.00
2022-09-07T13:36:01.051Z,4.63
2022-09-07T13:38:29.537Z,4.53
2022-09-07T13:41:03.876Z,6.78
2022-09-07T13:43:30.476Z,5.82
2022-09-07T13:46:03.764Z,4.97
2022-09-07T13:48:36.037Z,6.75
2022-09-07T13:51:12.382Z,4.95
2022-09-07T13:54:08.261Z,6.57
2022-09-07T13:56:49.776Z,6.22
2022-09-07T13:59:22.122Z,4.20
2022-09-07T14:01:50.137Z,5.65
2022-09-07T14:04:21.502Z,5.57
2022-09-07T14:06:47.894Z,5.28
2022-09-07T14:09:20.172Z,5.95
2022-09-07T14:11:52.033Z,7.07
2022-09-07T14:14:21.158Z,6.95
2022-09-07T14:16:59.433Z,5.82
2022-09-07T14:19:27.294Z,7.00
2022-09-07T14:22:02.008Z,4.53
2022-09-07T14:24:31.901Z,5.68
2022-09-07T14:26:59.119Z,5.50
2022-09-07T14:29:31.931Z,6.75
2022-09-07T14:32:04.125Z,5.63
2022-09-07T14:34:36.153Z,5.18
2022-09-07T14:37:06.922Z,5.95
2022-09-07T14:39:38.109Z,6.25
2022-09-07T14:42:05.898Z,5.75
2022-09-07T14:44:40.943Z,7.32
2022-09-07T14:47:20.767Z,5.10
2022-09-07T14:49:59.862Z,4.15
2022-09-07T14:52:42.298Z,5.10
2022-09-07T14:55:30.301Z,5.97
2022-09-07T14:58:15.016Z,6.65
2022-09-07T15:00:43.409Z,7.00
2022-09-07T15:03:29.085Z,6.00
2022-09-07T15:06:00.807Z,5.70
2022-09-07T15:08:45.124Z,4.25
2022-09-07T15:11:38.713Z,5.45
2022-09-07T15:14:07.795Z,5.10
2022-09-07T15:16:37.154Z,6.50
2022-09-07T15:19:26.981Z,6.47
2022-09-07T15:21:54.170Z,4.72
2022-09-07T15:24:20.470Z,4.72
2022-09-07T15:27:04.162Z,4.18
2022-09-07T15:29:31.449Z,4.43
2022-09-07T15:32:03.826Z,4.00
2022-09-07T15:34:31.149Z,5.22
2022-09-07T15:36:57.887Z,4.97
2022-09-07T15:39:26.548Z,5.35
2022-09-07T15:41:53.432Z,4.60
2022-09-07T15:44:24.931Z,4.78
2022-09-07T15:49:42.143Z,3.22
2022-09-07T15:52:10.997Z,6.72
2022-09-07T15:54:39.815Z,6.28
2022-09-07T15:59:52.824Z,5.47
2022-09-07T16:05:06.742Z,7.40
2022-09-07T16:10:20.341Z,5.32
2022-09-07T16:13:08.788Z,5.25
2022-09-07T16:15:33.413Z,4.93
2022-09-07T16:18:01.133Z,5.30
2022-09-07T16:20:32.033Z,5.20
2022-09-07T16:23:15.202Z,4.78
2022-09-07T16:25:54.001Z,5.43
2022-09-07T16:28:20.377Z,5.00
2022-09-07T16:30:48.013Z,4.93
2022-09-07T16:33:14.424Z,4.45
2022-09-07T16:35:40.799Z,4.78
2022-09-07T16:40:53.534Z,5.20
2022-09-07T16:43:19.989Z,5.93
2022-09-07T16:48:35.141Z,4.75
2022-09-07T16:51:04.628Z,4.03
2022-09-07T16:53:33.354Z,5.50
2022-09-07T16:56:03.847Z,6.22
2022-09-07T16:58:36.797Z,5.75
2022-09-07T17:01:08.152Z,2.72
2022-09-07T17:03:36.943Z,5.22
2022-09-07T17:06:05.410Z,3.38
2022-09-07T17:08:33.399Z,4.93
2022-09-07T17:11:01.589Z,5.30
2022-09-07T17:13:27.978Z,3.40
2022-09-07T17:15:54.740Z,3.22
2022-09-07T17:19:28.858Z,3.00
2022-09-07T17:21:08.024Z,3.10
2022-09-07T17:23:43.222Z,5.80
2022-09-07T17:26:18.189Z,3.97
2022-09-07T17:28:48.309Z,5.53
2022-09-07T17:34:04.718Z,4.03
2022-09-07T17:36:31.401Z,5.57
2022-09-07T17:39:16.392Z,7.47
2022-09-07T17:41:44.178Z,5.60
2022-09-07T17:44:10.971Z,7.10
2022-09-07T17:46:37.349Z,6.53
2022-09-07T17:49:03.730Z,3.72
2022-09-07T17:51:32.781Z,5.88
2022-09-07T17:54:01.925Z,6.30
2022-09-07T17:56:28.345Z,5.95
2022-09-07T18:00:10.614Z,7.30
2022-09-07T18:01:41.117Z,6.93
2022-09-07T18:04:07.460Z,6.10
2022-09-07T18:06:33.781Z,5.72
2022-09-07T18:09:02.528Z,7.00
2022-09-07T18:14:15.921Z,7.22
2022-09-07T18:16:44.725Z,7.93
2022-09-07T18:19:12.319Z,10.55
2022-09-07T18:21:40.798Z,8.15
2022-09-07T18:24:13.527Z,7.60
2022-09-07T18:26:40.558Z,7.68
2022-09-07T18:29:15.888Z,8.98
2022-09-07T18:31:53.048Z,6.38
2022-09-07T18:34:20.671Z,9.95
2022-09-07T18:36:47.172Z,7.18
2022-09-07T18:39:13.485Z,9.63
2022-09-07T18:41:40.886Z,7.93
2022-09-07T18:45:27.061Z,5.93
2022-09-07T18:46:54.334Z,8.25
2022-09-07T18:49:20.660Z,7.95
2022-09-07T18:54:33.366Z,7.18
2022-09-07T18:56:59.721Z,7.63
2022-09-07T18:59:26.209Z,11.55
2022-09-07T19:01:54.101Z,9.57
2022-09-07T19:04:22.292Z,10.00
2022-09-07T19:06:49.041Z,8.25
2022-09-07T19:09:15.715Z,9.32
2022-09-07T19:11:42.148Z,8.52
2022-09-07T19:14:08.700Z,8.88
2022-09-07T19:16:35.056Z,9.27
2022-09-07T19:19:04.812Z,9.65
2022-09-07T19:21:33.605Z,9.50
2022-09-07T19:24:20.262Z,7.20
2022-09-07T19:26:48.752Z,8.18
2022-09-07T19:29:17.592Z,7.55
2022-09-07T19:31:52.594Z,8.30
2022-09-07T19:34:18.970Z,12.02
2022-09-07T19:36:45.487Z,11.65
2022-09-07T19:39:11.837Z,12.70
2022-09-07T19:41:38.307Z,8.40
2022-09-07T19:44:04.601Z,8.10
2022-09-07T19:46:30.943Z,8.93
2022-09-07T19:48:57.288Z,8.45
2022-09-07T19:51:23.929Z,8.77
2022-09-07T19:53:50.232Z,8.52
2022-09-07T19:56:18.965Z,9.43
2022-09-07T19:58:45.808Z,9.82
2022-09-07T20:01:23.097Z,7.18
2022-09-07T20:03:56.966Z,9.38
2022-09-07T20:06:23.553Z,10.18
2022-09-07T20:08:49.870Z,9.88
2022-09-07T20:11:17.445Z,8.73
2022-09-07T20:13:44.422Z,8.43
2022-09-07T20:16:13.889Z,9.13
2022-09-07T20:18:41.555Z,10.63
2022-09-07T20:21:11.932Z,10.40
2022-09-07T20:23:38.429Z,8.65
2022-09-07T20:26:07.925Z,9.70
2022-09-07T20:28:34.969Z,10.27
2022-09-07T20:31:08.186Z,9.77
2022-09-07T20:33:35.239Z,10.55
2022-09-07T20:36:03.442Z,8.43
2022-09-07T20:38:29.825Z,11.45
2022-09-07T20:40:58.901Z,8.93
2022-09-07T20:43:26.197Z,8.88
2022-09-07T20:45:59.707Z,10.13
2022-09-07T20:48:27.249Z,9.00
2022-09-07T20:50:58.352Z,9.18
2022-09-07T20:53:25.473Z,8.90
2022-09-07T20:56:25.952Z,9.18
2022-09-07T20:58:57.361Z,11.40
2022-09-07T21:01:23.743Z,10.25
2022-09-07T21:03:52.933Z,9.45
2022-09-07T21:06:20.505Z,11.13
2022-09-07T21:08:48.150Z,11.90
2022-09-07T21:11:17.812Z,9.00
2022-09-07T21:13:44.432Z,10.20
2022-09-07T21:16:12.914Z,11.85
2022-09-07T21:18:40.348Z,10.98
2022-09-07T21:21:22.145Z,11.32
2022-09-07T21:23:48.835Z,11.15
2022-09-07T21:26:20.089Z,13.57
2022-09-07T21:28:46.550Z,10.15
2022-09-07T21:31:12.918Z,10.50
2022-09-07T21:33:39.314Z,10.05
2022-09-07T21:36:08.294Z,10.82
2022-09-07T21:38:36.644Z,10.15
2022-09-07T21:41:10.822Z,12.05
2022-09-07T21:43:38.366Z,10.77
2022-09-07T21:46:09.628Z,11.00
2022-09-07T21:48:36.016Z,13.90
2022-09-07T21:51:02.792Z,11.63
2022-09-07T21:53:29.185Z,11.57
2022-09-07T21:56:00.549Z,11.15
2022-09-07T21:58:28.994Z,12.68
2022-09-07T22:00:56.359Z,10.98
2022-09-07T22:03:24.079Z,13.48
2022-09-07T22:05:50.650Z,14.35
2022-09-07T22:08:17.272Z,13.27
2022-09-07T22:10:44.417Z,11.88
2022-09-07T22:13:11.488Z,14.52
2022-09-07T22:15:39.038Z,12.75
2022-09-07T22:18:07.161Z,12.10
2022-09-07T22:20:34.009Z,15.38
2022-09-07T22:23:00.569Z,13.75
2022-09-07T22:25:27.319Z,14.13
2022-09-07T22:27:54.287Z,15.05
2022-09-07T22:30:20.589Z,20.13
2022-09-07T22:32:47.604Z,20.65
2022-09-07T22:35:14.860Z,23.10
2022-09-07T22:37:41.570Z,14.60
2022-09-07T22:40:08.652Z,14.48
2022-09-07T22:42:35.045Z,19.63
2022-09-07T22:45:01.484Z,14.25
2022-09-07T22:47:27.800Z,13.75
2022-09-07T22:49:54.100Z,13.60
2022-09-07T22:52:20.420Z,14.65
2022-09-07T22:54:46.720Z,15.55
2022-09-07T22:57:13.037Z,15.27
2022-09-07T22:59:39.639Z,15.05
2022-09-07T23:02:06.225Z,17.83
2022-09-07T23:04:32.722Z,18.30
2022-09-07T23:06:59.189Z,18.15
2022-09-07T23:09:25.502Z,15.27
2022-09-07T23:11:51.834Z,19.10
2022-09-07T23:14:21.253Z,20.15
2022-09-07T23:16:48.698Z,16.73
2022-09-07T23:19:17.747Z,18.20
2022-09-07T23:21:44.770Z,15.70
2022-09-07T23:24:13.297Z,18.70
2022-09-07T23:26:39.916Z,17.10
2022-09-07T23:29:06.726Z,16.35
2022-09-07T23:31:34.663Z,19.27
2022-09-07T23:34:02.044Z,21.13
2022-09-07T23:36:28.629Z,22.83
2022-09-07T23:38:56.665Z,21.73
2022-09-07T23:41:24.096Z,25.30
2022-09-07T23:43:51.496Z,28.13
2022-09-07T23:46:18.243Z,21.35
2022-09-07T23:48:46.512Z,22.70
2022-09-07T23:51:13.609Z,22.40
2022-09-07T23:53:40.522Z,21.48
